createdAt,value
2022-10-24T00:01:41.503Z,18.70
2022-10-24T00:03:44.251Z,19.97
2022-10-24T00:05:47.670Z,20.07
2022-10-24T00:07:50.353Z,19.33
2022-10-24T00:09:52.997Z,19.53
2022-10-24T00:11:55.649Z,20.37
2022-10-24T00:13:59.621Z,20.30
2022-10-24T00:16:02.336Z,20.50
2022-10-24T00:18:05.454Z,19.23
2022-10-24T00:20:08.848Z,18.57
2022-10-24T00:22:11.446Z,20.03
2022-10-24T00:24:14.097Z,19.03
2022-10-24T00:26:17.702Z,19.27
2022-10-24T00:28:20.322Z,19.00
2022-10-24T00:30:24.264Z,18.30
2022-10-24T00:32:26.947Z,18.77
2022-10-24T00:34:29.844Z,21.63
2022-10-24T00:36:32.442Z,19.00
2022-10-24T00:38:35.053Z,18.57
2022-10-24T00:40:37.669Z,19.27
2022-10-24T00:42:40.789Z,18.20
2022-10-24T00:44:43.610Z,19.40
2022-10-24T00:46:49.185Z,20.30
2022-10-24T00:48:53.268Z,18.17
2022-10-24T00:50:58.086Z,17.90
2022-10-24T00:53:00.739Z,18.83
2022-10-24T00:55:03.683Z,19.37
2022-10-24T00:57:08.811Z,20.10
2022-10-24T00:59:12.047Z,18.60
2022-10-24T01:01:14.850Z,19.30
2022-10-24T01:03:19.004Z,17.73
2022-10-24T01:05:22.710Z,18.33
2022-10-24T01:07:32.218Z,17.87
2022-10-24T01:09:42.719Z,19.40
2022-10-24T01:11:52.758Z,19.23
2022-10-24T01:13:58.999Z,19.47
2022-10-24T01:16:06.794Z,18.67
2022-10-24T01:18:11.503Z,18.70
2022-10-24T01:20:28.016Z,18.90
2022-10-24T01:22:31.470Z,20.23
2022-10-24T01:24:40.731Z,19.57
2022-10-24T01:27:01.735Z,19.17
2022-10-24T01:29:07.804Z,20.20
2022-10-24T01:31:13.181Z,18.47
2022-10-24T01:33:19.814Z,18.87
2022-10-24T01:35:27.719Z,17.87
2022-10-24T01:37:32.502Z,18.03
2022-10-24T01:39:37.840Z,19.47
2022-10-24T01:41:40.858Z,17.40
2022-10-24T01:43:45.811Z,17.77
2022-10-24T01:45:50.687Z,19.37
2022-10-24T01:47:55.695Z,18.50
2022-10-24T01:49:59.815Z,17.90
2022-10-24T01:52:05.742Z,19.70
2022-10-24T01:54:08.496Z,17.70
2022-10-24T01:56:11.142Z,18.57
2022-10-24T01:58:14.124Z,19.40
2022-10-24T02:00:18.959Z,18.90
2022-10-24T02:02:22.941Z,17.70
2022-10-24T02:04:26.889Z,18.30
2022-10-24T02:06:31.027Z,17.60
2022-10-24T02:08:34.810Z,17.27
2022-10-24T02:10:39.494Z,17.77
2022-10-24T02:12:44.511Z,18.57
2022-10-24T02:14:48.633Z,16.97
2022-10-24T02:16:51.266Z,16.73
2022-10-24T02:18:54.793Z,16.53
2022-10-24T02:21:00.638Z,17.60
2022-10-24T02:23:06.437Z,18.10
2022-10-24T02:25:10.994Z,16.67
2022-10-24T02:27:15.373Z,18.20
2022-10-24T02:29:19.803Z,16.27
2022-10-24T02:31:23.753Z,16.20
2022-10-24T02:33:26.689Z,16.70
2022-10-24T02:35:30.872Z,17.10
2022-10-24T02:37:35.634Z,17.30
2022-10-24T02:39:39.673Z,16.47
2022-10-24T02:41:42.720Z,16.57
2022-10-24T02:43:45.393Z,17.30
2022-10-24T02:45:48.047Z,16.17
2022-10-24T02:47:50.686Z,16.87
2022-10-24T02:49:53.671Z,16.57
2022-10-24T02:51:56.320Z,15.93
2022-10-24T02:54:01.098Z,15.27
2022-10-24T02:56:03.772Z,16.60
2022-10-24T02:58:06.438Z,15.27
2022-10-24T03:00:10.028Z,16.40
2022-10-24T03:02:13.164Z,16.50
2022-10-24T03:04:15.864Z,17.43
2022-10-24T03:06:18.583Z,16.30
2022-10-24T03:08:21.374Z,16.07
2022-10-24T03:10:25.480Z,16.10
2022-10-24T03:12:28.153Z,15.97
2022-10-24T03:14:30.812Z,16.57
2022-10-24T03:16:33.463Z,15.43
2022-10-24T03:18:36.453Z,14.97
2022-10-24T03:20:39.266Z,15.43
2022-10-24T03:22:41.943Z,15.47
2022-10-24T03:24:54.825Z,15.30
2022-10-24T03:26:59.375Z,15.43
2022-10-24T03:29:02.070Z,16.13
2022-10-24T03:31:04.794Z,15.47
2022-10-24T03:33:07.798Z,14.83
2022-10-24T03:35:13.324Z,16.97
2022-10-24T03:37:16.972Z,14.07
2022-10-24T03:39:19.605Z,14.00
2022-10-24T03:41:22.629Z,14.53
2022-10-24T03:43:26.564Z,14.50
2022-10-24T03:45:29.311Z,14.17
2022-10-24T03:47:31.964Z,14.33
2022-10-24T03:49:34.985Z,14.50
2022-10-24T03:51:37.642Z,14.87
2022-10-24T03:53:40.296Z,14.80
2022-10-24T03:55:42.989Z,16.80
2022-10-24T03:57:46.447Z,13.43
2022-10-24T03:59:50.545Z,14.03
2022-10-24T04:01:53.242Z,17.93
2022-10-24T04:03:55.868Z,14.27
2022-10-24T04:05:58.880Z,12.93
2022-10-24T04:08:01.497Z,14.10
2022-10-24T04:10:04.303Z,13.60
2022-10-24T04:12:06.995Z,13.53
2022-10-24T04:14:10.533Z,13.53
2022-10-24T04:16:14.465Z,14.07
2022-10-24T04:18:17.118Z,15.23
2022-10-24T04:20:22.312Z,12.40
2022-10-24T04:22:25.366Z,12.77
2022-10-24T04:24:27.990Z,12.90
2022-10-24T04:26:30.648Z,13.73
2022-10-24T04:28:33.287Z,11.50
2022-10-24T04:30:35.974Z,12.57
2022-10-24T04:32:39.982Z,12.33
2022-10-24T04:34:42.630Z,12.50
2022-10-24T04:36:45.726Z,12.33
2022-10-24T04:38:48.427Z,12.67
2022-10-24T04:40:52.614Z,11.67
2022-10-24T04:42:55.254Z,11.33
2022-10-24T04:44:58.311Z,11.47
2022-10-24T04:47:00.950Z,12.97
2022-10-24T04:49:04.892Z,11.33
2022-10-24T04:51:07.509Z,12.00
2022-10-24T04:53:10.642Z,11.43
2022-10-24T04:55:13.330Z,11.80
2022-10-24T04:57:15.959Z,11.07
2022-10-24T04:59:18.635Z,11.83
2022-10-24T05:01:21.780Z,11.90
2022-10-24T05:03:24.454Z,11.93
2022-10-24T05:05:28.434Z,13.50
2022-10-24T05:07:31.070Z,15.23
2022-10-24T05:09:34.290Z,26.27
2022-10-24T05:11:36.942Z,18.97
2022-10-24T05:13:39.581Z,20.93
2022-10-24T05:15:42.213Z,14.40
2022-10-24T05:17:45.238Z,21.73
2022-10-24T05:19:48.165Z,25.00
2022-10-24T05:21:52.114Z,12.20
2022-10-24T05:23:54.825Z,20.53
2022-10-24T05:25:57.472Z,14.27
2022-10-24T05:28:00.173Z,12.87
2022-10-24T05:30:02.883Z,18.17
2022-10-24T05:32:06.195Z,12.03
2022-10-24T05:34:08.869Z,26.23
2022-10-24T05:36:11.515Z,12.90
2022-10-24T05:38:15.498Z,12.73
2022-10-24T05:40:18.585Z,13.80
2022-10-24T05:42:21.263Z,11.93
2022-10-24T05:44:24.277Z,26.60
2022-10-24T05:46:27.311Z,11.60
2022-10-24T05:48:30.280Z,15.50
2022-10-24T05:50:33.001Z,27.43
2022-10-24T05:52:36.527Z,23.20
2022-10-24T05:54:55.268Z,15.40
2022-10-24T05:57:03.137Z,23.33
2022-10-24T05:59:05.781Z,18.17
2022-10-24T06:01:08.629Z,14.37
2022-10-24T06:03:11.855Z,19.67
2022-10-24T06:05:14.639Z,18.20
2022-10-24T06:07:17.567Z,12.47
2022-10-24T06:09:20.175Z,17.80
2022-10-24T06:11:24.257Z,18.50
2022-10-24T06:13:26.949Z,14.63
2022-10-24T06:15:29.618Z,38.67
2022-10-24T06:17:33.615Z,24.47
2022-10-24T06:19:37.162Z,15.93
2022-10-24T06:21:39.825Z,12.30
2022-10-24T06:23:42.539Z,12.73
2022-10-24T06:25:45.510Z,23.43
2022-10-24T06:27:49.590Z,13.80
2022-10-24T06:29:52.275Z,13.50
2022-10-24T06:31:54.943Z,11.73
2022-10-24T06:33:58.053Z,10.57
2022-10-24T06:36:00.881Z,38.13
2022-10-24T06:38:03.487Z,27.63
2022-10-24T06:40:06.857Z,22.47
2022-10-24T06:42:09.978Z,12.70
2022-10-24T06:44:13.958Z,16.63
2022-10-24T06:46:18.076Z,14.73
2022-10-24T06:48:20.715Z,12.67
2022-10-24T06:50:23.770Z,11.47
2022-10-24T06:52:26.510Z,13.30
2022-10-24T06:54:30.508Z,11.43
2022-10-24T06:56:33.301Z,14.73
2022-10-24T06:58:37.387Z,13.23
2022-10-24T07:00:41.318Z,13.00
2022-10-24T07:02:44.515Z,13.33
2022-10-24T07:04:47.346Z,14.03
2022-10-24T07:06:50.581Z,10.67
2022-10-24T07:08:53.463Z,12.30
2022-10-24T07:10:56.242Z,11.80
2022-10-24T07:12:58.919Z,13.57
2022-10-24T07:15:03.975Z,11.40
2022-10-24T07:17:08.516Z,12.43
2022-10-24T07:19:11.325Z,14.33
2022-10-24T07:21:16.091Z,11.47
2022-10-24T07:23:19.317Z,13.80
2022-10-24T07:25:22.074Z,11.70
2022-10-24T07:27:24.914Z,12.17
2022-10-24T07:29:27.530Z,15.97
2022-10-24T07:31:32.514Z,16.47
2022-10-24T07:33:37.812Z,17.47
2022-10-24T07:35:42.641Z,12.97
2022-10-24T07:37:45.603Z,17.80
2022-10-24T07:39:49.681Z,15.80
2022-10-24T07:41:52.331Z,14.00
2022-10-24T07:43:57.018Z,13.87
2022-10-24T07:48:05.679Z,15.13
2022-10-24T07:50:10.397Z,12.30
2022-10-24T07:52:13.741Z,11.97
2022-10-24T07:54:16.451Z,42.27
2022-10-24T07:56:19.314Z,13.30
2022-10-24T07:58:21.954Z,16.23
2022-10-24T08:00:26.441Z,16.53
2022-10-24T08:02:29.092Z,29.23
2022-10-24T08:04:31.881Z,19.60
2022-10-24T08:06:35.978Z,16.83
2022-10-24T08:08:39.553Z,13.07
2022-10-24T08:10:42.403Z,16.17
2022-10-24T08:12:45.189Z,15.20
2022-10-24T08:14:48.111Z,17.40
2022-10-24T08:16:51.206Z,15.73
2022-10-24T08:18:54.670Z,18.63
2022-10-24T08:21:03.560Z,14.23
2022-10-24T08:23:07.972Z,20.80
2022-10-24T08:25:11.483Z,19.30
2022-10-24T08:27:14.367Z,16.60
2022-10-24T08:29:22.908Z,15.43
2022-10-24T08:31:26.128Z,14.13
2022-10-24T08:33:29.228Z,16.83
2022-10-24T08:35:31.957Z,18.60
2022-10-24T08:39:41.794Z,14.07
2022-10-24T08:41:47.782Z,18.70
2022-10-24T08:43:50.732Z,16.70
2022-10-24T08:45:57.983Z,16.73
2022-10-24T08:48:03.472Z,18.10
2022-10-24T08:50:22.679Z,19.73
2022-10-24T08:52:29.646Z,15.50
2022-10-24T08:54:36.881Z,19.80
2022-10-24T08:56:40.813Z,17.50
2022-10-24T08:58:44.508Z,16.50
2022-10-24T09:00:50.928Z,13.93
2022-10-24T09:02:56.829Z,13.37
2022-10-24T09:05:01.459Z,14.10
2022-10-24T09:07:04.200Z,15.90
2022-10-24T09:09:11.276Z,19.50
2022-10-24T09:11:16.470Z,14.27
2022-10-24T09:13:24.018Z,16.67
2022-10-24T09:15:28.758Z,16.63
2022-10-24T09:17:32.225Z,19.03
2022-10-24T09:19:34.869Z,14.30
2022-10-24T09:21:38.070Z,17.53
2022-10-24T09:23:41.399Z,14.03
2022-10-24T09:25:45.709Z,33.17
2022-10-24T09:27:48.694Z,19.57
2022-10-24T09:29:53.394Z,13.23
2022-10-24T09:31:57.788Z,15.80
2022-10-24T09:34:00.904Z,16.23
2022-10-24T09:36:04.911Z,16.07
2022-10-24T09:38:27.456Z,14.80
2022-10-24T09:40:31.569Z,17.40
2022-10-24T09:42:34.492Z,15.27
2022-10-24T09:44:38.499Z,13.10
2022-10-24T09:46:45.848Z,17.80
2022-10-24T09:48:51.299Z,15.60
2022-10-24T09:50:54.574Z,13.07
2022-10-24T09:52:59.048Z,12.27
2022-10-24T09:55:07.834Z,14.90
2022-10-24T09:59:31.733Z,13.17
2022-10-24T10:01:34.676Z,12.17
2022-10-24T10:03:40.883Z,12.67
2022-10-24T10:05:46.020Z,13.60
2022-10-24T10:07:50.410Z,12.50
2022-10-24T10:09:56.731Z,16.70
2022-10-24T10:12:03.470Z,30.70
2022-10-24T10:14:06.365Z,14.27
2022-10-24T10:16:22.434Z,13.17
2022-10-24T10:18:28.632Z,17.27
2022-10-24T10:20:35.152Z,15.30
2022-10-24T10:22:40.131Z,14.30
2022-10-24T10:24:45.513Z,15.30
2022-10-24T10:26:48.167Z,13.73
2022-10-24T10:28:58.165Z,15.60
2022-10-24T10:31:09.100Z,13.90
2022-10-24T12:16:51.192Z,16.13
2022-10-24T12:18:57.823Z,14.00
2022-10-24T12:21:03.767Z,16.87
2022-10-24T12:23:06.639Z,13.33
2022-10-24T12:25:20.002Z,13.77
2022-10-24T12:27:28.308Z,14.83
2022-10-24T12:29:33.848Z,14.93
2022-10-24T12:31:37.796Z,17.83
2022-10-24T12:33:45.050Z,13.37
2022-10-24T12:35:56.696Z,12.47
2022-10-24T12:38:00.874Z,18.80
2022-10-24T12:40:30.379Z,13.50
2022-10-24T12:42:57.219Z,13.57
2022-10-24T12:45:24.772Z,13.37
2022-10-24T12:47:38.503Z,11.93
2022-10-24T12:49:43.016Z,14.33
2022-10-24T12:51:49.255Z,11.83
2022-10-24T12:54:04.531Z,15.03
2022-10-24T12:56:12.093Z,12.70
2022-10-24T12:58:23.324Z,13.53
2022-10-24T13:00:27.499Z,12.63
2022-10-24T13:02:41.815Z,12.70
2022-10-24T13:04:54.068Z,12.07
2022-10-24T13:07:12.963Z,12.83
2022-10-24T13:09:23.081Z,12.17
2022-10-24T13:11:35.330Z,11.77
2022-10-24T13:13:52.513Z,13.77
2022-10-24T13:15:59.911Z,11.33
2022-10-24T13:18:10.770Z,10.73
2022-10-24T13:20:19.785Z,11.97
2022-10-24T13:22:29.346Z,12.20
2022-10-24T13:24:35.196Z,11.03
2022-10-24T13:26:44.260Z,12.90
2022-10-24T13:28:47.580Z,11.93
2022-10-24T13:30:50.834Z,10.77
2022-10-24T13:33:21.144Z,11.90
2022-10-24T13:35:26.238Z,14.00
2022-10-24T13:37:30.468Z,14.73
2022-10-24T13:39:38.805Z,12.80
2022-10-24T13:41:46.794Z,12.20
2022-10-24T13:43:50.833Z,10.30
2022-10-24T13:45:58.669Z,11.20
2022-10-24T13:48:02.905Z,13.47
2022-10-24T13:50:07.826Z,13.90
2022-10-24T13:52:17.572Z,13.77
2022-10-24T13:54:21.945Z,10.93
2022-10-24T13:56:24.956Z,12.47
2022-10-24T13:58:28.819Z,11.83
2022-10-24T14:00:37.351Z,11.60
2022-10-24T14:02:41.599Z,11.87
2022-10-24T14:04:47.021Z,14.40
2022-10-24T14:06:50.042Z,13.87
2022-10-24T14:09:04.214Z,11.43
2022-10-24T14:11:13.463Z,13.30
2022-10-24T14:13:16.511Z,12.30
2022-10-24T14:15:21.283Z,14.70
2022-10-24T14:17:26.964Z,12.83
2022-10-24T14:19:33.040Z,11.50
2022-10-24T14:21:41.124Z,12.90
2022-10-24T14:23:44.188Z,15.67
2022-10-24T14:25:48.383Z,13.27
2022-10-24T14:27:51.673Z,14.07
2022-10-24T14:29:58.228Z,12.20
2022-10-24T14:32:02.880Z,11.63
2022-10-24T14:34:09.640Z,13.20
2022-10-24T14:36:12.909Z,17.17
2022-10-24T14:38:16.581Z,12.03
2022-10-24T14:40:19.799Z,11.67
2022-10-24T14:42:24.086Z,12.83
2022-10-24T14:44:27.710Z,12.90
2022-10-24T14:46:35.444Z,15.03
2022-10-24T14:48:40.436Z,11.23
2022-10-24T14:50:44.410Z,12.00
2022-10-24T14:52:48.086Z,13.27
2022-10-24T14:54:55.823Z,11.93
2022-10-24T14:57:00.865Z,9.90
2022-10-24T14:59:06.315Z,11.40
2022-10-24T15:01:09.081Z,12.80
2022-10-24T15:03:12.030Z,12.00
2022-10-24T15:05:27.863Z,10.67
2022-10-24T15:07:31.463Z,13.07
2022-10-24T15:09:34.225Z,10.80
2022-10-24T15:11:43.297Z,10.77
2022-10-24T15:13:50.875Z,11.63
2022-10-24T15:16:04.229Z,9.40
2022-10-24T15:18:08.342Z,10.67
2022-10-24T15:20:17.370Z,12.53
2022-10-24T15:22:24.126Z,11.30
2022-10-24T15:24:27.266Z,11.37
2022-10-24T15:26:35.480Z,12.40
2022-10-24T15:28:44.440Z,10.00
2022-10-24T15:30:47.347Z,13.63
2022-10-24T15:32:51.766Z,11.73
2022-10-24T15:34:55.841Z,10.83
2022-10-24T15:36:58.787Z,21.27
2022-10-24T15:39:02.512Z,17.20
2022-10-24T15:41:05.536Z,18.60
2022-10-24T15:43:12.161Z,16.40
2022-10-24T15:45:15.486Z,32.37
2022-10-24T15:47:18.306Z,31.17
2022-10-24T15:49:22.427Z,27.20
2022-10-24T15:51:26.827Z,29.63
2022-10-24T15:53:29.628Z,19.83
2022-10-24T15:55:32.627Z,16.13
2022-10-24T15:57:40.944Z,21.57
2022-10-24T15:59:50.211Z,15.60
2022-10-24T16:02:02.353Z,14.30
2022-10-24T16:04:05.319Z,15.10
2022-10-24T16:06:11.943Z,14.43
2022-10-24T16:08:18.912Z,14.60
2022-10-24T16:10:22.590Z,13.43
2022-10-24T16:12:26.057Z,16.23
2022-10-24T16:14:30.525Z,16.57
2022-10-24T16:16:33.375Z,15.80
2022-10-24T16:18:36.563Z,15.40
2022-10-24T16:20:39.685Z,15.30
2022-10-24T16:22:45.385Z,16.63
2022-10-24T16:24:48.880Z,15.80
2022-10-24T16:26:51.717Z,16.57
2022-10-24T16:28:54.839Z,15.73
2022-10-24T16:30:57.725Z,17.30
2022-10-24T16:33:00.637Z,16.67
2022-10-24T16:35:03.483Z,15.33
2022-10-24T16:37:06.662Z,20.23
2022-10-24T16:39:10.812Z,20.30
2022-10-24T16:41:15.854Z,17.37
2022-10-24T16:43:19.891Z,17.07
2022-10-24T16:45:24.040Z,15.90
2022-10-24T16:47:26.964Z,18.47
2022-10-24T16:49:31.302Z,20.13
2022-10-24T16:51:34.289Z,20.23
2022-10-24T16:53:37.500Z,19.70
2022-10-24T16:55:41.680Z,17.70
2022-10-24T16:57:44.819Z,19.50
2022-10-24T16:59:49.254Z,21.20
2022-10-24T17:01:52.254Z,21.67
2022-10-24T17:03:55.409Z,38.23
2022-10-24T17:05:58.224Z,23.40
2022-10-24T17:08:02.220Z,30.97
2022-10-24T17:10:05.314Z,27.93
2022-10-24T17:12:09.654Z,25.63
2022-10-24T17:14:14.258Z,21.93
2022-10-24T17:16:17.272Z,21.03
2022-10-24T17:18:23.421Z,30.33
2022-10-24T17:20:27.776Z,25.37
2022-10-24T17:22:30.859Z,23.50
2022-10-24T17:24:36.231Z,26.13
2022-10-24T17:26:39.617Z,24.10
2022-10-24T17:28:45.626Z,21.50
2022-10-24T17:30:49.586Z,20.97
2022-10-24T17:32:52.983Z,21.30
2022-10-24T17:34:58.476Z,22.77
2022-10-24T17:37:04.332Z,52.00
2022-10-24T17:39:10.292Z,25.77
2022-10-24T17:41:18.093Z,23.07
2022-10-24T17:43:22.839Z,23.87
2022-10-24T17:45:27.364Z,23.17
2022-10-24T17:47:30.605Z,27.27
2022-10-24T17:49:41.194Z,29.73
2022-10-24T17:51:47.099Z,25.53
2022-10-24T17:53:49.887Z,23.43
2022-10-24T17:55:52.801Z,24.30
2022-10-24T17:57:55.876Z,24.53
2022-10-24T18:00:02.551Z,24.20
2022-10-24T18:02:07.291Z,24.73
2022-10-24T18:04:13.324Z,22.70
2022-10-24T18:06:17.575Z,27.33
2022-10-24T18:08:20.443Z,25.90
2022-10-24T18:10:23.222Z,26.00
2022-10-24T18:12:25.914Z,26.20
2022-10-24T18:14:29.183Z,25.10
2022-10-24T18:16:31.923Z,26.90
2022-10-24T18:18:36.507Z,29.23
2022-10-24T18:20:39.365Z,25.30
2022-10-24T18:22:43.077Z,26.40
2022-10-24T18:24:46.111Z,27.40
2022-10-24T18:26:49.790Z,27.33
2022-10-24T18:28:53.589Z,24.40
2022-10-24T18:30:56.932Z,26.60
2022-10-24T18:32:59.804Z,27.70
2022-10-24T18:35:03.898Z,30.10
2022-10-24T18:37:06.623Z,28.47
2022-10-24T18:39:10.485Z,23.47
2022-10-24T18:41:25.891Z,23.87
2022-10-24T18:43:28.827Z,25.73
2022-10-24T18:45:32.496Z,27.23
2022-10-24T18:47:36.058Z,30.17
2022-10-24T18:49:39.601Z,29.23
2022-10-24T18:51:50.729Z,27.77
2022-10-24T18:53:53.803Z,28.80
2022-10-24T18:55:56.744Z,24.80
2022-10-24T18:57:59.803Z,30.63
2022-10-24T19:00:03.563Z,29.97
2022-10-24T19:02:16.007Z,27.70
2022-10-24T19:04:20.349Z,33.03
2022-10-24T19:06:24.801Z,28.50
2022-10-24T19:08:29.394Z,27.33
2022-10-24T19:10:32.310Z,29.57
2022-10-24T19:12:35.173Z,28.27
2022-10-24T19:14:38.692Z,27.17
2022-10-24T19:16:41.477Z,30.23
2022-10-24T19:18:47.194Z,31.40
2022-10-24T19:20:50.018Z,28.93
2022-10-24T19:22:52.832Z,32.67
2022-10-24T19:24:58.836Z,29.30
2022-10-24T19:27:01.579Z,27.53
2022-10-24T19:29:05.849Z,27.17
2022-10-24T19:31:08.837Z,28.77
2022-10-24T19:33:13.309Z,33.80
2022-10-24T19:35:17.368Z,31.00
2022-10-24T19:37:20.462Z,33.20
2022-10-24T19:39:23.440Z,27.60
2022-10-24T19:41:28.043Z,29.50
2022-10-24T19:43:32.079Z,25.20
2022-10-24T19:45:36.552Z,27.30
2022-10-24T19:47:40.352Z,25.80
2022-10-24T19:49:45.514Z,29.67
2022-10-24T19:51:48.262Z,27.10
2022-10-24T19:53:52.825Z,26.60
2022-10-24T19:55:55.564Z,28.23
2022-10-24T19:57:59.876Z,26.30
2022-10-24T20:00:02.638Z,30.10
2022-10-24T20:02:05.430Z,29.80
2022-10-24T20:04:08.179Z,30.10
2022-10-24T20:06:12.460Z,29.30
2022-10-24T20:08:16.131Z,29.53
2022-10-24T20:12:24.624Z,26.30
2022-10-24T20:14:29.380Z,27.43
2022-10-24T20:16:33.499Z,26.73
2022-10-24T20:18:36.867Z,26.53
2022-10-24T20:20:39.706Z,26.00
2022-10-24T20:22:43.429Z,27.90
2022-10-24T20:24:46.258Z,27.13
2022-10-24T20:26:50.532Z,33.90
2022-10-24T20:28:54.697Z,26.60
2022-10-24T20:31:00.038Z,23.67
2022-10-24T20:33:02.819Z,28.50
2022-10-24T20:35:06.194Z,27.43
2022-10-24T20:37:09.333Z,29.03
2022-10-24T20:39:15.712Z,26.83
2022-10-24T20:41:18.534Z,27.43
2022-10-24T20:43:21.332Z,26.53
2022-10-24T20:45:24.595Z,25.33
2022-10-24T20:47:30.881Z,29.17
2022-10-24T20:49:33.816Z,26.33
2022-10-24T20:51:36.552Z,24.73
2022-10-24T20:53:39.469Z,29.87
2022-10-24T20:55:44.790Z,24.60
2022-10-24T20:57:47.949Z,28.93
2022-10-24T20:59:50.828Z,25.90
2022-10-24T21:01:54.207Z,24.30
2022-10-24T21:03:58.937Z,22.83
2022-10-24T21:06:01.890Z,27.70
2022-10-24T21:08:05.004Z,24.27
2022-10-24T21:10:08.048Z,23.93
2022-10-24T21:12:11.171Z,24.47
2022-10-24T21:14:14.916Z,22.40
2022-10-24T21:16:17.826Z,24.57
2022-10-24T21:18:20.741Z,23.03
2022-10-24T21:20:26.474Z,24.23
2022-10-24T21:22:29.370Z,26.33
2022-10-24T21:24:32.269Z,22.67
2022-10-24T21:26:38.305Z,27.77
2022-10-24T21:28:41.913Z,23.47
2022-10-24T21:30:44.673Z,23.40
2022-10-24T21:32:47.502Z,21.90
2022-10-24T21:34:50.203Z,23.07
2022-10-24T21:36:54.622Z,23.67
2022-10-24T21:39:00.442Z,22.60
2022-10-24T21:41:03.748Z,21.77
2022-10-24T21:43:06.528Z,23.00
2022-10-24T21:45:11.050Z,23.10
2022-10-24T21:47:13.963Z,23.10
2022-10-24T21:49:16.787Z,22.67
2022-10-24T21:51:20.418Z,22.30
2022-10-24T21:53:25.363Z,21.47
2022-10-24T21:55:28.247Z,20.80
2022-10-24T21:57:31.019Z,22.40
2022-10-24T21:59:33.807Z,22.70
2022-10-24T22:01:37.479Z,21.60
2022-10-24T22:03:40.448Z,20.80
2022-10-24T22:05:52.269Z,20.10
2022-10-24T22:07:56.122Z,20.83
2022-10-24T22:10:00.762Z,21.53
2022-10-24T22:12:04.533Z,25.03
2022-10-24T22:14:07.421Z,20.60
2022-10-24T22:16:11.124Z,22.47
2022-10-24T22:18:13.907Z,21.73
2022-10-24T22:20:16.741Z,21.83
2022-10-24T22:22:19.615Z,23.73
2022-10-24T22:24:24.416Z,20.50
2022-10-24T22:26:28.580Z,21.53
2022-10-24T22:28:31.409Z,20.53
2022-10-24T22:30:34.271Z,19.23
2022-10-24T22:32:37.557Z,18.47
2022-10-24T22:34:40.865Z,20.33
2022-10-24T22:36:50.430Z,18.93
2022-10-24T22:38:54.102Z,19.37
2022-10-24T22:40:57.525Z,19.30
2022-10-24T22:43:02.023Z,21.10
2022-10-24T22:45:05.545Z,18.27
2022-10-24T22:47:16.309Z,19.33
2022-10-24T22:49:21.181Z,19.93
2022-10-24T22:51:24.500Z,17.87
2022-10-24T22:53:28.499Z,19.60
2022-10-24T22:55:33.843Z,21.93
2022-10-24T22:57:37.018Z,18.97
2022-10-24T22:59:41.532Z,20.43
2022-10-24T23:01:59.803Z,20.10
2022-10-24T23:04:08.589Z,19.23
2022-10-24T23:06:13.878Z,19.50
2022-10-24T23:08:22.904Z,19.40
2022-10-24T23:10:26.231Z,17.90
2022-10-24T23:12:29.298Z,17.80
2022-10-24T23:14:32.490Z,17.53
2022-10-24T23:16:39.467Z,15.63
2022-10-24T23:18:42.696Z,19.90
2022-10-24T23:20:45.868Z,16.60
2022-10-24T23:22:54.481Z,14.67
2022-10-24T23:25:07.079Z,17.53
2022-10-24T23:27:19.033Z,15.60
2022-10-24T23:29:26.327Z,18.87
2022-10-24T23:31:29.850Z,15.30
2022-10-24T23:33:34.375Z,17.30
2022-10-24T23:35:37.128Z,17.57
2022-10-24T23:37:41.073Z,15.90
2022-10-24T23:39:44.575Z,15.33
2022-10-24T23:41:48.085Z,15.40
2022-10-24T23:43:51.448Z,14.37
2022-10-24T23:45:58.728Z,17.60
2022-10-24T23:48:09.753Z,14.37
2022-10-24T23:50:16.727Z,13.70
2022-10-24T23:52:21.351Z,15.63
2022-10-24T23:54:26.506Z,15.83
2022-10-24T23:56:30.931Z,15.30
2022-10-24T23:58:33.709Z,14.40
